Terminal Aerodrome Forecast
Issued by NWS

Home | Current Version | Previous Version | Text Only | Print | Product List | Glossary On
Versions: 1 2 3 4 5 6 7 8 9 10 11 12 13
000
FTAK31 PAJN 230523
TAFAYA
TAF
PAYA 230523Z 2306/2406 30003KT P6SM -SHRA SCT025 OVC070
      TEMPO 2306/2310 4SM -SHRA BR OVC015
     FM231500 08004KT P6SM VCSH BKN035 OVC050
     FM240000 04006KT P6SM -RA SCT025 BKN035 OVC050
      AMD NOT SKED=

USA.gov is the U.S. government's official web portal to all federal, state and local government web resources and services.